KMRJ

Details ICAO KMRJ
Name Iowa Co
Region United States
Timezone America/Chicago (UTC-5.0)
Plans Departing 2
Arriving 0
Stats Elevation 1,171 ft / 357 m (AMSL)
Location 42.886637° -90.235617°
Runways 2
Magnetic Variation 2.031° W
Sunrise 2018-05-21 10:33:47 UTC / 2018-05-21 05:33:47 Local
Sunset 2018-05-22 01:24:11 UTC / 2018-05-21 20:24:11 Local
Advertisement - Login to hide

Runways

ID Width Length Bearing (true) Bearing (mag) Surface Threshold Offset Overrun Length
04 60 ft / 18 m 3,599 ft / 1,097 m 40.14° 42.17° Asphalt 0 ft / 0 m 0 ft / 0 m
11 75 ft / 23 m 4,990 ft / 1,521 m 110.85° 112.88° Asphalt 0 ft / 0 m 0 ft / 0 m
22 60 ft / 18 m 3,599 ft / 1,097 m 220.14° 222.17° Asphalt 0 ft / 0 m 0 ft / 0 m
29 75 ft / 23 m 4,990 ft / 1,521 m 290.87° 292.90° Asphalt 0 ft / 0 m 0 ft / 0 m

Map

Weather


0- 5 10 15 20 25 30 35+ Temperature / ° C

Clouds and Precipitation
Forecast for 2018-05-22 00:00 UTC. Updated 4 hours ago

Ground ~20,000 ft ~40,000 ft Winds

METAR

KMRJ 220235Z AUTO 09004KT 3SM BR OVC003 15/15 A2999 RMK AO2

TAF

Not found

Frequencies

Recorded 118.52 MHz AWOS 3
Unicom 122.80 MHz CTAF/UNICOM
Warning: Do not use this data for real-world aviation or navigation. No guarantee of current accuracy is given.